Time;durP1;ratioP1;P1;durP2;ratioP2;P2;SDS_P1;SDS_P2;PMS_P1;PMS_P2;Temp;Humidity;BMP_temperature;BMP_pressure;BME280_temperature;BME280_humidity;BME280_pressure;Samples;Min_cycle;Max_cycle;Signal;HPM_P1;HPM_P2
2024/02/01 00:00:10;;;;;;;37.92;17.98;;;6.00;99.90;;;;;;4938744;28;20041;-77
2024/02/01 00:02:35;;;;;;;48.55;21.58;;;5.90;99.90;;;;;;4938648;29;20031;-74
2024/02/01 00:05:01;;;;;;;48.20;21.67;;;5.90;99.90;;;;;;4955938;28;20035;-73
2024/02/01 00:07:27;;;;;;;49.50;21.42;;;5.80;99.90;;;;;;4956247;28;20028;-77
2024/02/01 00:09:52;;;;;;;43.45;20.52;;;5.80;99.90;;;;;;4936988;29;20105;-72
2024/02/01 00:12:18;;;;;;;50.50;23.42;;;5.80;99.90;;;;;;4955765;28;20091;-73
2024/02/01 00:14:43;;;;;;;50.03;22.25;;;5.80;99.90;;;;;;4955817;29;20038;-74
2024/02/01 00:17:09;;;;;;;41.28;21.40;;;5.90;99.90;;;;;;4954447;28;20027;-72
2024/02/01 00:19:35;;;;;;;51.88;22.25;;;5.80;99.90;;;;;;4937532;28;20047;-74
2024/02/01 00:22:01;;;;;;;45.88;21.85;;;5.80;99.90;;;;;;4938550;29;20491;-71
2024/02/01 00:24:26;;;;;;;41.40;18.63;;;5.80;99.90;;;;;;4937544;29;20035;-75
2024/02/01 00:26:52;;;;;;;47.72;22.17;;;5.70;99.90;;;;;;4955085;28;20023;-72
2024/02/01 00:29:17;;;;;;;47.53;22.90;;;5.80;99.90;;;;;;4955558;28;20067;-73
2024/02/01 00:31:43;;;;;;;43.88;21.15;;;5.70;99.90;;;;;;4954197;28;20024;-72
2024/02/01 00:34:09;;;;;;;47.67;21.63;;;5.80;99.90;;;;;;4955257;28;20032;-72
2024/02/01 00:36:34;;;;;;;47.88;23.33;;;5.80;99.90;;;;;;4955443;28;20054;-72
2024/02/01 00:39:00;;;;;;;47.50;22.70;;;5.80;99.90;;;;;;4938041;29;20031;-71
2024/02/01 00:41:26;;;;;;;48.03;23.52;;;5.90;99.90;;;;;;4955084;28;20414;-73
2024/02/01 00:43:52;;;;;;;47.95;23.40;;;5.80;99.90;;;;;;4937045;29;20092;-71
2024/02/01 00:46:17;;;;;;;50.95;22.92;;;5.80;99.90;;;;;;4955300;28;20099;-73
2024/02/01 00:48:43;;;;;;;55.10;24.02;;;5.80;99.90;;;;;;4953773;28;20035;-73
2024/02/01 00:51:09;;;;;;;39.20;18.63;;;5.80;99.90;;;;;;4954958;28;20034;-72
2024/02/01 00:53:34;;;;;;;41.22;20.77;;;5.80;99.90;;;;;;4955509;29;20054;-73
2024/02/01 00:56:00;;;;;;;46.30;21.35;;;5.90;99.90;;;;;;4938516;29;20038;-71
2024/02/01 00:58:25;;;;;;;45.65;22.50;;;5.90;99.90;;;;;;4938117;29;20697;-72
2024/02/01 01:00:51;;;;;;;49.63;23.80;;;5.90;99.90;;;;;;4937639;29;20111;-73
2024/02/01 01:03:17;;;;;;;54.67;24.42;;;5.90;99.90;;;;;;4955314;28;20019;-73
2024/02/01 01:05:43;;;;;;;49.33;23.85;;;5.90;99.90;;;;;;4936806;29;20028;-71
2024/02/01 01:08:09;;;;;;;47.58;23.42;;;5.90;99.90;;;;;;4937618;29;20023;-73
2024/02/01 01:10:35;;;;;;;52.75;24.38;;;5.90;99.90;;;;;;4936589;29;20067;-74
2024/02/01 01:13:01;;;;;;;44.35;20.27;;;5.90;99.90;;;;;;4954913;28;20054;-73
2024/02/01 01:15:26;;;;;;;46.03;20.92;;;5.90;99.90;;;;;;4937285;28;20119;-74
2024/02/01 01:17:52;;;;;;;52.03;24.38;;;6.00;99.90;;;;;;4954708;28;20086;-71
2024/02/01 01:20:18;;;;;;;56.33;25.25;;;6.00;99.90;;;;;;4954821;28;20027;-73
2024/02/01 01:22:43;;;;;;;51.55;23.40;;;6.00;99.90;;;;;;4937120;29;20019;-72
2024/02/01 01:25:09;;;;;;;51.47;24.85;;;6.00;99.90;;;;;;4955077;28;20046;-71
2024/02/01 01:27:34;;;;;;;52.80;22.65;;;6.00;99.90;;;;;;4938174;29;20058;-72
2024/02/01 01:30:00;;;;;;;58.03;25.25;;;6.00;99.90;;;;;;4937037;29;20023;-72
2024/02/01 01:32:25;;;;;;;51.88;23.52;;;6.00;99.90;;;;;;4955010;28;20024;-75
2024/02/01 01:34:51;;;;;;;55.10;24.50;;;6.10;99.90;;;;;;4954676;28;20031;-70
2024/02/01 01:37:17;;;;;;;51.22;23.98;;;6.00;99.90;;;;;;4935421;29;20027;-71
2024/02/01 01:39:42;;;;;;;50.08;22.02;;;6.00;99.90;;;;;;4954194;28;20051;-73
2024/02/01 01:42:08;;;;;;;55.47;24.05;;;6.10;99.90;;;;;;4953803;28;20031;-72
2024/02/01 01:44:33;;;;;;;53.03;22.73;;;6.20;99.90;;;;;;4953446;28;20506;-72
2024/02/01 01:46:59;;;;;;;51.42;23.02;;;6.10;99.90;;;;;;4954426;29;20019;-74
2024/02/01 01:49:25;;;;;;;58.90;25.58;;;6.20;99.90;;;;;;4953890;28;20053;-74
2024/02/01 01:51:52;;;;;;;60.97;26.13;;;6.10;99.90;;;;;;4953909;28;20051;-71
2024/02/01 01:54:20;;;;;;;58.65;25.67;;;6.10;99.90;;;;;;4954210;29;20052;-72
2024/02/01 01:56:46;;;;;;;62.45;23.70;;;6.10;99.90;;;;;;4953080;28;20032;-73
2024/02/01 01:59:13;;;;;;;53.13;24.00;;;6.10;99.90;;;;;;4953497;29;20043;-74
2024/02/01 02:01:40;;;;;;;55.30;23.77;;;6.20;99.90;;;;;;4953522;28;20030;-73
2024/02/01 02:04:07;;;;;;;56.13;23.75;;;6.10;99.90;;;;;;4935869;28;20028;-72
2024/02/01 02:06:33;;;;;;;56.03;22.30;;;6.30;99.90;;;;;;4936622;28;20027;-72
2024/02/01 02:08:59;;;;;;;52.28;23.23;;;6.20;99.90;;;;;;4953414;28;20042;-72
2024/02/01 02:11:26;;;;;;;66.75;23.48;;;6.20;99.90;;;;;;4953606;28;20492;-72
2024/02/01 02:13:52;;;;;;;53.25;22.75;;;6.40;99.90;;;;;;4953581;29;20042;-70
2024/02/01 02:16:18;;;;;;;59.08;23.90;;;6.40;99.90;;;;;;4936446;29;20016;-71
2024/02/01 02:18:44;;;;;;;55.72;22.98;;;6.30;99.90;;;;;;4936072;29;20039;-71
2024/02/01 02:21:18;;;;;;;54.55;21.75;;;6.30;99.90;;;;;;4953683;28;20023;-71
2024/02/01 02:23:49;;;;;;;62.85;22.88;;;6.30;99.90;;;;;;4953210;29;20051;-72
2024/02/01 02:26:15;;;;;;;51.00;21.33;;;6.40;99.90;;;;;;4953329;28;20038;-71
2024/02/01 02:28:41;;;;;;;59.58;23.23;;;6.40;99.90;;;;;;4953846;29;20496;-71
2024/02/01 02:31:07;;;;;;;52.40;21.65;;;6.40;99.90;;;;;;4936631;29;20549;-71
2024/02/01 02:33:32;;;;;;;51.63;21.10;;;6.50;99.90;;;;;;4952404;28;20039;-71
2024/02/01 02:35:58;;;;;;;52.25;20.58;;;6.50;99.90;;;;;;4953158;28;20055;-71
2024/02/01 02:38:24;;;;;;;57.65;20.95;;;6.50;99.90;;;;;;4953526;28;20115;-70
2024/02/01 02:40:49;;;;;;;47.00;18.30;;;6.60;99.90;;;;;;4953374;28;20027;-71
2024/02/01 02:43:16;;;;;;;55.63;20.77;;;6.60;99.90;;;;;;4953517;28;20074;-72
2024/02/01 02:45:41;;;;;;;49.22;19.60;;;6.60;99.90;;;;;;4935548;28;20035;-71
2024/02/01 02:48:09;;;;;;;53.42;18.50;;;6.70;99.90;;;;;;4936769;28;20126;-70
2024/02/01 02:50:35;;;;;;;51.25;19.63;;;6.70;99.90;;;;;;4936336;29;20035;-72
2024/02/01 02:53:02;;;;;;;56.47;19.67;;;6.70;99.90;;;;;;4953034;29;20015;-72
2024/02/01 02:55:27;;;;;;;49.40;18.75;;;6.70;99.90;;;;;;4952739;28;20016;-71
2024/02/01 02:57:53;;;;;;;54.70;20.10;;;6.80;99.90;;;;;;4936493;28;20031;-73
2024/02/01 03:00:19;;;;;;;57.10;20.40;;;6.80;99.90;;;;;;4953363;28;20034;-70
2024/02/01 03:02:48;;;;;;;57.78;20.52;;;6.80;99.90;;;;;;4953082;29;20033;-70
2024/02/01 03:05:16;;;;;;;53.20;19.75;;;6.80;99.90;;;;;;4953409;28;20035;-70
2024/02/01 03:07:43;;;;;;;60.10;19.83;;;6.90;99.90;;;;;;4936224;28;20090;-71
2024/02/01 03:10:09;;;;;;;64.00;20.27;;;6.90;99.90;;;;;;4952886;28;20141;-72
2024/02/01 03:12:34;;;;;;;59.72;18.95;;;6.90;99.90;;;;;;4936111;29;20028;-71
2024/02/01 03:15:00;;;;;;;56.75;17.45;;;6.90;99.90;;;;;;4936281;29;20587;-73
2024/02/01 03:17:25;;;;;;;64.50;20.00;;;6.90;99.90;;;;;;4935707;29;20083;-71
2024/02/01 03:19:51;;;;;;;55.45;18.27;;;6.90;99.90;;;;;;4933947;29;21284;-71
2024/02/01 03:22:20;;;;;;;59.40;18.73;;;6.90;99.90;;;;;;4952904;28;20027;-73
2024/02/01 03:24:47;;;;;;;62.90;17.90;;;6.90;99.90;;;;;;4935153;29;20023;-70
2024/02/01 03:27:14;;;;;;;58.67;16.52;;;6.90;99.90;;;;;;4935560;28;20401;-71
2024/02/01 03:29:41;;;;;;;54.00;16.42;;;6.90;99.90;;;;;;4935567;28;20023;-73
2024/02/01 03:32:07;;;;;;;57.58;15.63;;;6.90;99.90;;;;;;4952414;28;20043;-73
2024/02/01 03:34:33;;;;;;;54.70;15.63;;;7.00;99.90;;;;;;4952090;29;20027;-71
2024/02/01 03:37:01;;;;;;;57.33;15.38;;;6.90;99.90;;;;;;4953047;28;20023;-71
2024/02/01 03:39:29;;;;;;;54.92;14.82;;;6.90;99.90;;;;;;4952753;29;20062;-72
2024/02/01 03:41:56;;;;;;;56.47;14.95;;;6.90;99.90;;;;;;4935500;29;20036;-74
2024/02/01 03:44:22;;;;;;;66.00;14.98;;;6.90;99.90;;;;;;4951499;28;20035;-72
2024/02/01 03:46:51;;;;;;;57.17;12.98;;;6.90;99.90;;;;;;4953024;28;20056;-71
2024/02/01 03:49:17;;;;;;;53.20;12.35;;;6.90;99.90;;;;;;4952615;29;20030;-72
2024/02/01 03:51:43;;;;;;;53.17;12.32;;;6.90;99.90;;;;;;4952206;28;20027;-72
2024/02/01 03:54:09;;;;;;;62.05;12.07;;;6.80;99.90;;;;;;4932503;29;20553;-73
2024/02/01 03:56:38;;;;;;;51.00;11.00;;;6.80;99.90;;;;;;4935143;28;20466;-72
2024/02/01 03:59:06;;;;;;;53.63;10.90;;;6.80;99.90;;;;;;4951514;28;20047;-71
2024/02/01 04:01:31;;;;;;;59.50;10.43;;;6.70;99.90;;;;;;4949714;28;20027;-73
2024/02/01 04:03:57;;;;;;;61.72;11.18;;;6.70;99.90;;;;;;4952759;28;20035;-73
2024/02/01 04:06:24;;;;;;;50.40;10.27;;;6.60;99.90;;;;;;4936807;29;20030;-72
2024/02/01 04:08:51;;;;;;;59.83;10.07;;;6.50;99.90;;;;;;4955198;28;20118;-72
2024/02/01 04:11:16;;;;;;;54.90;9.63;;;6.50;99.90;;;;;;4954275;28;20020;-73
2024/02/01 04:13:42;;;;;;;54.53;8.70;;;6.40;99.90;;;;;;4938800;29;20031;-73
2024/02/01 04:16:08;;;;;;;54.60;8.10;;;6.40;99.90;;;;;;4938349;29;20023;-73
2024/02/01 04:18:34;;;;;;;53.10;8.45;;;6.30;99.90;;;;;;4955750;28;20046;-72
2024/02/01 04:21:01;;;;;;;70.55;9.48;;;6.30;99.90;;;;;;4953258;28;20038;-73
2024/02/01 04:23:29;;;;;;;53.63;8.55;;;6.20;99.90;;;;;;4954863;28;20036;-74
2024/02/01 04:25:55;;;;;;;56.72;8.32;;;6.10;99.90;;;;;;4955871;28;20030;-71
2024/02/01 04:28:21;;;;;;;49.85;8.75;;;6.10;99.90;;;;;;4956103;28;20587;-70
2024/02/01 04:30:50;;;;;;;55.60;7.72;;;6.10;99.90;;;;;;4955117;28;21443;-71
2024/02/01 04:33:22;;;;;;;55.03;7.05;;;6.00;99.90;;;;;;4938485;29;20033;-73
2024/02/01 04:35:49;;;;;;;52.10;5.93;;;5.90;99.90;;;;;;4955455;28;20413;-73
2024/02/01 04:38:15;;;;;;;49.05;6.25;;;5.90;99.90;;;;;;4955128;28;20027;-72
2024/02/01 04:40:43;;;;;;;45.85;6.28;;;5.90;99.90;;;;;;4936912;28;20039;-73
2024/02/01 04:43:09;;;;;;;52.08;6.95;;;5.90;99.90;;;;;;4938134;28;20453;-72
2024/02/01 04:45:35;;;;;;;50.85;7.47;;;5.80;99.90;;;;;;4937299;29;20023;-74
2024/02/01 04:48:01;;;;;;;57.33;6.40;;;5.80;99.90;;;;;;4938130;29;20075;-73
2024/02/01 04:50:26;;;;;;;53.20;7.15;;;5.80;99.90;;;;;;4937760;29;20038;-74
2024/02/01 04:52:52;;;;;;;52.65;6.82;;;5.70;99.90;;;;;;4937898;29;20102;-73
2024/02/01 04:55:17;;;;;;;59.03;6.78;;;5.70;99.90;;;;;;4954158;28;20118;-72
2024/02/01 04:57:43;;;;;;;56.17;7.00;;;5.70;99.90;;;;;;4953395;29;20474;-73
2024/02/01 05:00:17;;;;;;;53.92;6.45;;;5.60;99.90;;;;;;4955332;28;20099;-73
2024/02/01 05:02:46;;;;;;;52.17;5.68;;;5.60;99.90;;;;;;4951380;28;20023;-72
2024/02/01 05:05:15;;;;;;;61.83;6.53;;;5.60;99.90;;;;;;4936792;28;20034;-73
2024/02/01 05:07:41;;;;;;;58.45;8.05;;;5.60;99.90;;;;;;4954547;28;20027;-73
2024/02/01 05:10:08;;;;;;;59.60;6.80;;;5.70;99.90;;;;;;4954368;28;20044;-75
2024/02/01 05:12:38;;;;;;;54.80;7.20;;;5.60;99.90;;;;;;4937490;29;20031;-71
2024/02/01 05:15:06;;;;;;;68.65;6.85;;;5.60;99.90;;;;;;4955541;28;20024;-72
2024/02/01 05:17:33;;;;;;;47.63;6.13;;;5.50;99.90;;;;;;4952929;28;20066;-73
2024/02/01 05:19:59;;;;;;;61.05;6.38;;;5.50;99.90;;;;;;4954993;28;20040;-72
2024/02/01 05:22:28;;;;;;;46.92;5.88;;;5.50;99.90;;;;;;4953521;28;20030;-73
2024/02/01 05:24:54;;;;;;;54.92;6.70;;;5.50;99.90;;;;;;4953116;28;21046;-73
2024/02/01 05:27:20;;;;;;;49.50;7.10;;;5.50;99.90;;;;;;4954074;28;20023;-72
2024/02/01 05:29:49;;;;;;;48.40;6.18;;;5.50;99.90;;;;;;4936981;29;20458;-72
2024/02/01 05:32:16;;;;;;;60.47;7.03;;;5.40;99.90;;;;;;4954485;28;20034;-74
2024/02/01 05:34:41;;;;;;;49.72;6.90;;;5.40;99.90;;;;;;4952621;28;20103;-73
2024/02/01 05:37:08;;;;;;;52.10;6.30;;;5.40;99.90;;;;;;4953686;28;20058;-72
2024/02/01 05:39:34;;;;;;;44.42;6.28;;;5.40;99.90;;;;;;4936164;29;20043;-75
2024/02/01 05:42:06;;;;;;;48.15;5.80;;;5.40;99.90;;;;;;4937090;29;20027;-74
2024/02/01 05:44:32;;;;;;;56.60;7.15;;;5.30;99.90;;;;;;4936985;29;20050;-73
2024/02/01 05:46:58;;;;;;;55.70;6.13;;;5.30;99.90;;;;;;4954099;28;20023;-73
2024/02/01 05:49:28;;;;;;;70.70;6.68;;;5.40;99.90;;;;;;4936192;29;20024;-75
2024/02/01 05:51:54;;;;;;;57.35;6.28;;;5.30;99.90;;;;;;4953945;28;20031;-73
2024/02/01 05:54:21;;;;;;;56.53;5.88;;;5.20;99.90;;;;;;4954055;28;20016;-73
2024/02/01 05:56:49;;;;;;;51.28;5.47;;;5.20;99.90;;;;;;4936372;29;20130;-71
2024/02/01 05:59:17;;;;;;;53.67;6.53;;;5.20;99.90;;;;;;4936817;29;20036;-72
2024/02/01 06:01:43;;;;;;;54.38;5.55;;;5.30;99.90;;;;;;4936164;28;20365;-72
2024/02/01 06:04:10;;;;;;;52.20;5.68;;;5.10;99.90;;;;;;4953935;28;20118;-72
2024/02/01 06:06:37;;;;;;;64.47;6.05;;;5.10;99.90;;;;;;4934327;29;20055;-73
2024/02/01 06:09:04;;;;;;;46.22;5.50;;;5.10;99.90;;;;;;4950638;28;20048;-73
2024/02/01 06:11:31;;;;;;;48.17;6.00;;;5.10;99.90;;;;;;4952200;29;20027;-72
2024/02/01 06:13:56;;;;;;;64.00;5.95;;;5.00;99.90;;;;;;4951926;28;20118;-73
2024/02/01 06:16:22;;;;;;;48.67;5.75;;;5.00;99.90;;;;;;4934337;29;20519;-71
2024/02/01 06:18:47;;;;;;;64.40;9.45;;;5.00;99.90;;;;;;4952476;28;20107;-73
2024/02/01 06:21:15;;;;;;;64.43;5.88;;;4.90;99.90;;;;;;4936185;29;20054;-72
2024/02/01 06:23:41;;;;;;;46.63;6.03;;;5.00;99.90;;;;;;4935583;29;20039;-72
2024/02/01 06:26:07;;;;;;;52.75;5.07;;;5.00;99.90;;;;;;4951763;28;20028;-72
2024/02/01 06:28:33;;;;;;;57.35;7.15;;;4.90;99.90;;;;;;4952391;28;20016;-71
2024/02/01 06:30:59;;;;;;;66.03;7.07;;;4.80;99.90;;;;;;4932238;29;20030;-71
2024/02/01 06:33:28;;;;;;;50.10;6.60;;;4.80;99.90;;;;;;4934305;29;20042;-70
2024/02/01 06:35:55;;;;;;;67.68;5.38;;;4.80;99.90;;;;;;4951366;28;20020;-73
2024/02/01 06:38:35;;;;;;;61.90;6.63;;;4.80;99.90;;;;;;4952738;28;20098;-73
2024/02/01 06:41:17;;;;;;;56.90;5.93;;;4.80;99.90;;;;;;4952729;28;20134;-72
2024/02/01 06:44:09;;;;;;;66.53;5.78;;;4.70;99.90;;;;;;4949389;28;20499;-74
2024/02/01 06:47:06;;;;;;;59.90;5.63;;;4.70;99.90;;;;;;4950709;28;20092;-73
2024/02/01 06:52:13;;;;;;;52.10;5.95;;;4.70;99.90;;;;;;4951487;28;20063;-73
2024/02/01 06:54:50;;;;;;;55.13;5.90;;;4.70;99.90;;;;;;4951698;28;20027;-73
2024/02/01 06:57:22;;;;;;;57.75;6.32;;;4.60;99.90;;;;;;4931791;28;20091;-74
2024/02/01 07:02:35;;;;;;;50.80;4.90;;;4.60;99.90;;;;;;4946928;28;20034;-73
2024/02/01 07:08:02;;;;;;;;;;;4.60;99.90;;;;;;4946293;28;20118;-74
2024/02/01 07:10:43;;;;;;;72.60;7.15;;;4.50;99.90;;;;;;4933359;29;19918;-75
2024/02/01 07:13:21;;;;;;;44.85;5.35;;;4.50;99.90;;;;;;4933264;29;20111;-74
2024/02/01 07:15:48;;;;;;;58.58;5.35;;;4.50;99.90;;;;;;4952536;28;20016;-75
2024/02/01 07:18:19;;;;;;;56.15;6.10;;;4.50;99.90;;;;;;4935736;28;20039;-75
2024/02/01 07:20:51;;;;;;;75.25;6.80;;;4.60;99.90;;;;;;4953291;28;20024;-74
2024/02/01 07:25:59;;;;;;;66.82;7.30;;;4.50;99.90;;;;;;4951252;28;20117;-75
2024/02/01 07:58:38;;;;;;;54.20;7.15;;;4.80;99.90;;;;;;4955779;29;20062;-74
2024/02/01 08:01:14;;;;;;;44.13;6.30;;;4.90;99.90;;;;;;4939083;29;20019;-76
2024/02/01 08:03:56;;;;;;;56.35;8.07;;;5.00;99.90;;;;;;4955911;28;20020;-76
2024/02/01 08:09:11;;;;;;;58.33;6.95;;;5.10;99.90;;;;;;4956150;28;20055;-74
2024/02/01 08:11:41;;;;;;;53.53;5.82;;;5.30;99.90;;;;;;4955979;28;20035;-76
2024/02/01 08:14:10;;;;;;;44.72;5.47;;;5.30;99.90;;;;;;4939526;29;20516;-72
2024/02/01 08:16:39;;;;;;;54.97;5.85;;;5.40;99.90;;;;;;4939132;29;20031;-78
2024/02/01 08:19:08;;;;;;;39.95;5.38;;;5.50;99.90;;;;;;4955639;28;20042;-78
2024/02/01 08:21:38;;;;;;;51.40;5.65;;;5.70;99.90;;;;;;4955702;29;20019;-74
2024/02/01 08:24:09;;;;;;;43.28;6.32;;;5.70;99.90;;;;;;4955959;29;20027;-73
2024/02/01 08:26:38;;;;;;;48.28;6.15;;;6.00;99.90;;;;;;4938789;29;20023;-74
2024/02/01 08:29:06;;;;;;;48.70;5.93;;;6.10;99.90;;;;;;4956118;29;20032;-75
2024/02/01 08:31:38;;;;;;;43.85;6.07;;;6.30;99.90;;;;;;4955390;28;20031;-74
2024/02/01 08:34:07;;;;;;;48.65;6.53;;;6.30;99.90;;;;;;4938675;29;20046;-75
2024/02/01 08:36:33;;;;;;;54.30;6.35;;;6.50;99.90;;;;;;4955401;28;20048;-73
2024/02/01 08:38:59;;;;;;;43.65;5.72;;;6.70;99.90;;;;;;4937462;29;20132;-75
2024/02/01 08:41:26;;;;;;;56.83;6.45;;;6.90;99.90;;;;;;4955486;28;20023;-73
2024/02/01 08:43:51;;;;;;;41.05;6.30;;;7.00;99.90;;;;;;4955593;28;20015;-73
2024/02/01 08:46:22;;;;;;;37.72;5.60;;;7.00;99.90;;;;;;4937792;28;20035;-74
2024/02/01 08:48:49;;;;;;;46.40;6.60;;;7.10;99.90;;;;;;4954787;28;20091;-76
2024/02/01 08:51:17;;;;;;;48.40;6.32;;;7.20;99.90;;;;;;4937577;28;20023;-76
2024/02/01 08:53:42;;;;;;;40.30;6.82;;;7.30;99.90;;;;;;4954224;28;20015;-75
2024/02/01 08:56:08;;;;;;;42.58;5.95;;;7.40;99.90;;;;;;4955281;28;20026;-74
2024/02/01 08:58:38;;;;;;;47.40;6.10;;;7.60;99.90;;;;;;4938585;29;20154;-75
2024/02/01 09:01:20;;;;;;;50.67;5.93;;;7.60;99.90;;;;;;4955160;29;20102;-74
2024/02/01 09:03:47;;;;;;;47.78;5.63;;;7.60;99.90;;;;;;4938172;28;20054;-75
2024/02/01 09:06:13;;;;;;;58.85;7.57;;;7.70;99.90;;;;;;4955321;28;20095;-74
2024/02/01 09:08:40;;;;;;;46.30;5.45;;;7.60;99.90;;;;;;4954223;28;20052;-73
2024/02/01 09:11:11;;;;;;;51.55;7.40;;;7.60;99.90;;;;;;4954735;28;20081;-72
2024/02/01 09:13:44;;;;;;;48.75;5.82;;;7.70;99.90;;;;;;4954823;29;20016;-74
2024/02/01 09:16:18;;;;;;;42.15;6.07;;;7.80;99.90;;;;;;4937584;29;20019;-74
2024/02/01 09:18:44;;;;;;;48.35;7.15;;;7.80;99.90;;;;;;4954779;29;20039;-76
2024/02/01 09:21:10;;;;;;;39.03;6.38;;;7.80;99.90;;;;;;4954996;28;20035;-75
2024/02/01 09:23:35;;;;;;;41.70;5.80;;;7.80;99.90;;;;;;4954954;28;20642;-72
2024/02/01 09:26:01;;;;;;;42.50;5.55;;;8.00;99.90;;;;;;4955123;28;20780;-76
2024/02/01 09:28:26;;;;;;;42.92;6.35;;;7.90;99.90;;;;;;4955163;28;20039;-76
2024/02/01 09:30:54;;;;;;;37.63;6.25;;;7.90;99.90;;;;;;4954394;28;20027;-74
2024/02/01 09:33:24;;;;;;;46.25;6.28;;;7.90;99.90;;;;;;4954392;29;20055;-77
2024/02/01 09:35:52;;;;;;;44.03;5.57;;;7.70;99.90;;;;;;4937798;29;20034;-74
2024/02/01 09:38:19;;;;;;;35.92;5.30;;;7.60;99.90;;;;;;4937201;29;20047;-75
2024/02/01 09:40:48;;;;;;;46.50;6.22;;;7.50;99.90;;;;;;4937088;29;20028;-75
2024/02/01 09:43:21;;;;;;;43.60;5.63;;;7.50;99.90;;;;;;4954904;28;20109;-76
2024/02/01 09:45:47;;;;;;;40.87;5.83;;;7.70;99.90;;;;;;4937033;29;20027;-76
2024/02/01 09:48:16;;;;;;;39.40;5.60;;;7.80;99.90;;;;;;4954790;28;20028;-76
2024/02/01 09:50:52;;;;;;;48.90;6.22;;;7.80;99.90;;;;;;4954116;28;20022;-75
2024/02/01 09:53:22;;;;;;;36.33;5.82;;;7.90;99.90;;;;;;4954260;28;20055;-77
2024/02/01 09:55:58;;;;;;;41.95;5.45;;;8.10;99.90;;;;;;4937638;29;21375;-76
2024/02/01 09:58:24;;;;;;;51.53;7.15;;;8.30;99.90;;;;;;4936548;29;20043;-77
2024/02/01 10:00:49;;;;;;;54.25;9.50;;;8.40;99.90;;;;;;4954392;28;20087;-74
2024/02/01 10:03:22;;;;;;;62.60;8.70;;;8.50;99.90;;;;;;4952609;28;20028;-78
2024/02/01 10:05:49;;;;;;;41.05;5.70;;;8.70;99.90;;;;;;4935118;28;20750;-73
2024/02/01 10:08:16;;;;;;;45.30;6.15;;;8.80;99.90;;;;;;4939016;29;20024;-74
2024/02/01 10:10:44;;;;;;;37.47;6.00;;;8.90;99.90;;;;;;4952399;28;20031;-75
2024/02/01 10:13:14;;;;;;;33.75;5.00;;;8.90;99.90;;;;;;4936267;29;20054;-73
2024/02/01 10:15:43;;;;;;;41.60;7.13;;;8.90;99.90;;;;;;4937026;28;20241;-76
2024/02/01 10:18:14;;;;;;;45.70;6.97;;;8.90;99.90;;;;;;4953650;28;20063;-75
2024/02/01 10:20:40;;;;;;;39.15;6.35;;;8.90;99.90;;;;;;4934708;28;20035;-74
2024/02/01 10:23:08;;;;;;;51.38;6.65;;;8.80;99.90;;;;;;4952359;29;20035;-74
2024/02/01 10:25:39;;;;;;;42.75;6.10;;;8.80;99.90;;;;;;4926649;29;20508;-74
2024/02/01 10:28:08;;;;;;;41.63;6.15;;;8.90;99.90;;;;;;4947577;28;20076;-78
2024/02/01 10:30:40;;;;;;;46.92;6.82;;;9.00;99.90;;;;;;4933446;29;20035;-76
2024/02/01 10:33:07;;;;;;;50.08;6.70;;;9.20;99.90;;;;;;4935684;28;20033;-78
2024/02/01 10:35:33;;;;;;;38.25;5.82;;;9.50;99.90;;;;;;4949925;29;20027;-77
2024/02/01 10:38:21;;;;;;;40.22;6.47;;;9.80;99.90;;;;;;4951651;28;20024;-74
2024/02/01 10:41:13;;;;;;;36.78;5.40;;;10.00;99.90;;;;;;4935012;29;20044;-75
2024/02/01 10:43:42;;;;;;;41.13;6.38;;;10.00;99.90;;;;;;4930195;29;20047;-75
2024/02/01 10:46:10;;;;;;;40.78;6.60;;;10.10;99.90;;;;;;4931184;29;20039;-73
2024/02/01 10:48:52;;;;;;;43.55;7.20;;;10.10;99.90;;;;;;4950176;28;20035;-75
2024/02/01 10:51:18;;;;;;;40.88;6.40;;;10.00;99.90;;;;;;4933778;28;20490;-75
2024/02/01 10:53:46;;;;;;;39.45;6.85;;;9.80;99.90;;;;;;4936295;29;20061;-76
2024/02/01 10:56:16;;;;;;;40.65;5.95;;;9.80;99.90;;;;;;4951539;29;20388;-75
2024/02/01 10:58:42;;;;;;;43.10;5.90;;;9.80;99.90;;;;;;4935845;29;20103;-76
2024/02/01 11:01:09;;;;;;;44.17;6.15;;;9.60;99.90;;;;;;4952874;28;20031;-75
2024/02/01 11:03:35;;;;;;;37.33;6.18;;;9.50;99.90;;;;;;4949591;28;20058;-73
2024/02/01 11:06:01;;;;;;;34.65;5.47;;;9.70;99.90;;;;;;4952765;28;20038;-76
2024/02/01 11:08:32;;;;;;;42.00;6.13;;;9.80;99.90;;;;;;4950995;29;20075;-76
2024/02/01 11:11:15;;;;;;;47.75;7.25;;;9.90;99.90;;;;;;4953214;28;20070;-74
2024/02/01 11:14:01;;;;;;;45.08;6.93;;;10.10;99.90;;;;;;4952810;28;20106;-79
2024/02/01 11:16:41;;;;;;;37.22;6.07;;;10.10;99.90;;;;;;4947985;28;20105;-76
2024/02/01 11:19:15;;;;;;;42.42;6.07;;;10.10;99.90;;;;;;4957154;28;20084;-77
2024/02/01 11:21:57;;;;;;;46.17;6.43;;;10.20;99.90;;;;;;4939822;29;20036;-76
2024/02/01 11:24:28;;;;;;;38.85;6.10;;;10.10;99.90;;;;;;4954011;28;20040;-77
2024/02/01 11:26:55;;;;;;;39.42;5.95;;;10.20;99.90;;;;;;4933831;29;20095;-75
2024/02/01 11:29:24;;;;;;;36.65;5.65;;;10.20;99.90;;;;;;4952822;28;20055;-74
2024/02/01 11:32:00;;;;;;;38.17;6.32;;;10.30;99.90;;;;;;4936083;29;20043;-75
2024/02/01 11:34:26;;;;;;;41.00;5.88;;;10.60;99.90;;;;;;4955064;29;20023;-76
2024/02/01 11:36:53;;;;;;;41.72;5.80;;;11.00;99.90;;;;;;4953620;28;20038;-75
2024/02/01 11:39:19;;;;;;;42.05;6.38;;;11.20;99.90;;;;;;4940676;28;20043;-73
2024/02/01 11:41:48;;;;;;;35.53;6.53;;;11.40;99.90;;;;;;4938167;29;20102;-74
2024/02/01 11:44:20;;;;;;;37.25;6.57;;;11.30;99.90;;;;;;4951860;29;20024;-73
2024/02/01 11:46:47;;;;;;;40.00;5.97;;;11.70;99.90;;;;;;4955147;28;20471;-75
2024/02/01 11:49:18;;;;;;;42.92;6.50;;;11.60;99.90;;;;;;4955008;28;20088;-74
2024/02/01 11:51:45;;;;;;;39.70;5.70;;;11.70;99.90;;;;;;4956695;28;20028;-75
2024/02/01 11:54:11;;;;;;;31.20;5.32;;;11.30;99.90;;;;;;4956452;28;20024;-75
2024/02/01 11:56:38;;;;;;;45.92;7.65;;;11.20;99.90;;;;;;4941806;29;20368;-74
2024/02/01 11:59:04;;;;;;;32.15;6.57;;;11.30;99.90;;;;;;4924575;29;20095;-76
2024/02/01 12:01:30;;;;;;;44.75;6.75;;;11.70;99.90;;;;;;4922675;29;20123;-74
2024/02/01 12:03:58;;;;;;;30.52;5.93;;;11.80;99.90;;;;;;4954228;28;20491;-76
2024/02/01 12:06:24;;;;;;;34.50;5.88;;;11.60;99.90;;;;;;4930935;29;20693;-75
2024/02/01 12:08:50;;;;;;;34.03;5.72;;;11.30;99.90;;;;;;4948445;28;20079;-73
2024/02/01 12:11:17;;;;;;;33.13;4.95;;;11.20;99.90;;;;;;4936104;28;20046;-74
2024/02/01 12:13:47;;;;;;;32.15;4.85;;;11.40;99.90;;;;;;4953122;28;20051;-75
2024/02/01 12:16:25;;;;;;;38.03;5.53;;;11.80;99.90;;;;;;4937147;29;20039;-74
2024/02/01 12:18:52;;;;;;;44.58;6.10;;;12.00;99.90;;;;;;4937186;29;20102;-74
2024/02/01 12:21:26;;;;;;;36.25;5.40;;;12.10;99.90;;;;;;4955350;29;20157;-74
2024/02/01 12:23:58;;;;;;;30.10;5.05;;;12.30;99.90;;;;;;4939590;29;20031;-75
2024/02/01 12:26:28;;;;;;;36.47;5.25;;;12.40;99.90;;;;;;4939107;29;20086;-72
2024/02/01 12:28:54;;;;;;;34.60;4.63;;;12.60;99.90;;;;;;4954669;28;20054;-73
2024/02/01 12:31:20;;;;;;;33.22;4.95;;;12.80;99.90;;;;;;4952775;29;20118;-73
2024/02/01 12:33:46;;;;;;;29.52;5.15;;;13.00;99.90;;;;;;4954492;28;20027;-73
2024/02/01 12:36:12;;;;;;;31.25;5.35;;;13.10;99.90;;;;;;4955769;28;20027;-72
2024/02/01 12:38:48;;;;;;;33.63;5.32;;;13.20;99.90;;;;;;4955295;28;20047;-75
2024/02/01 12:41:17;;;;;;;29.63;5.38;;;13.30;99.90;;;;;;4956279;28;20020;-74
2024/02/01 12:43:44;;;;;;;28.08;4.88;;;13.40;99.90;;;;;;4955629;29;20024;-73
2024/02/01 12:46:11;;;;;;;29.63;4.75;;;13.30;99.90;;;;;;4955190;28;20032;-73
2024/02/01 12:48:37;;;;;;;30.58;5.30;;;13.00;99.90;;;;;;4937880;29;20111;-74
2024/02/01 12:51:05;;;;;;;30.50;5.30;;;12.60;99.90;;;;;;4956581;28;20019;-74
2024/02/01 12:53:31;;;;;;;32.67;4.97;;;11.90;99.90;;;;;;4937488;29;20024;-76
2024/02/01 12:55:56;;;;;;;32.72;4.90;;;11.30;99.90;;;;;;4938415;28;20512;-75
2024/02/01 12:58:22;;;;;;;26.85;4.85;;;10.70;99.90;;;;;;4938409;29;20019;-76
2024/02/01 13:00:47;;;;;;;34.08;5.10;;;10.20;99.90;;;;;;4938275;29;20736;-72
2024/02/01 13:03:13;;;;;;;27.02;4.50;;;10.10;99.90;;;;;;4955429;28;20031;-73
2024/02/01 13:05:39;;;;;;;31.40;5.00;;;10.10;99.90;;;;;;4937769;29;20031;-73
2024/02/01 13:08:06;;;;;;;33.50;4.78;;;10.30;99.90;;;;;;4949699;28;20032;-74
2024/02/01 13:10:38;;;;;;;30.08;4.18;;;10.80;99.90;;;;;;4940201;28;20031;-72
2024/02/01 13:13:07;;;;;;;32.33;4.72;;;11.10;99.90;;;;;;4933324;28;20031;-75
2024/02/01 13:15:36;;;;;;;25.50;4.63;;;11.80;99.90;;;;;;4951209;28;20031;-75
2024/02/01 13:18:02;;;;;;;32.80;5.28;;;12.30;99.90;;;;;;4954561;28;20419;-73
2024/02/01 13:20:29;;;;;;;25.35;4.97;;;13.00;99.90;;;;;;4952637;28;20078;-73
2024/02/01 13:22:56;;;;;;;32.70;4.85;;;13.20;99.90;;;;;;4954099;28;20019;-74
2024/02/01 13:25:22;;;;;;;32.22;4.57;;;13.30;99.90;;;;;;4936951;29;20140;-77
2024/02/01 13:27:52;;;;;;;27.63;4.80;;;13.40;99.90;;;;;;4952250;28;20055;-74